Time;durP1;ratioP1;P1;durP2;ratioP2;P2;SDS_P1;SDS_P2;PMS_P1;PMS_P2;Temp;Humidity;BMP_temperature;BMP_pressure;BME280_temperature;BME280_humidity;BME280_pressure;Samples;Min_cycle;Max_cycle;Signal;HPM_P1;HPM_P2
2024/04/18 00:01:09;;;;;;;0.00;0.00;;;;;;;10.23;54.60;98805.84;5305094;26;32569;-81
2024/04/18 00:03:36;;;;;;;0.43;0.43;;;;;;;10.31;53.97;98811.56;5287308;26;32926;-81
2024/04/18 00:06:03;;;;;;;0.17;0.17;;;;;;;10.59;53.26;98808.16;5323791;26;34691;-81
2024/04/18 00:08:30;;;;;;;0.00;0.00;;;;;;;10.47;53.45;98803.59;5305192;26;34163;-81
2024/04/18 00:11:17;;;;;;;0.00;0.00;;;;;;;10.58;52.58;98810.88;5293153;26;32302;-81
2024/04/18 00:13:44;;;;;;;0.00;0.00;;;;;;;10.36;52.97;98806.88;5306298;26;34076;-81
2024/04/18 00:16:25;;;;;;;0.10;0.10;;;;;;;10.32;52.69;98807.13;5291434;26;32811;-81
2024/04/18 00:19:14;;;;;;;0.20;0.20;;;;;;;9.83;53.89;98802.88;5327260;26;33615;-81
2024/04/18 00:21:59;;;;;;;0.08;0.08;;;;;;;9.92;53.82;98802.34;5307654;26;33796;-80
2024/04/18 00:24:29;;;;;;;0.00;0.00;;;;;;;9.95;53.90;98802.16;5323906;26;33924;-80
2024/04/18 00:26:55;;;;;;;0.00;0.00;;;;;;;10.12;53.55;98798.56;5323807;26;34766;-80
2024/04/18 00:29:35;;;;;;;0.00;0.00;;;;;;;9.94;53.97;98795.19;5272128;26;32656;-80
2024/04/18 00:32:09;;;;;;;0.20;0.15;;;;;;;10.07;53.45;98799.78;5306623;26;32751;-80
2024/04/18 00:34:35;;;;;;;0.10;0.10;;;;;;;9.95;54.09;98794.25;5323740;26;33731;-80
2024/04/18 00:37:02;;;;;;;0.88;0.60;;;;;;;9.86;54.70;98801.81;5305147;26;33089;-80
2024/04/18 00:39:43;;;;;;;0.03;0.03;;;;;;;10.08;54.03;98796.19;5325316;26;33153;-80
2024/04/18 00:42:10;;;;;;;5.57;2.35;;;;;;;10.01;54.46;98791.25;5305575;26;32384;-80
2024/04/18 00:44:38;;;;;;;0.22;0.22;;;;;;;10.22;53.50;98793.59;5305402;26;32592;-80
2024/04/18 00:47:15;;;;;;;0.00;0.00;;;;;;;9.97;54.33;98802.94;5289369;26;32460;-80
2024/04/18 00:49:57;;;;;;;0.00;0.00;;;;;;;10.09;54.09;98803.16;5309444;26;33050;-80
2024/04/18 00:52:38;;;;;;;0.85;0.85;;;;;;;10.14;54.08;98798.47;5307438;26;32067;-80
2024/04/18 00:55:06;;;;;;;0.43;0.43;;;;;;;10.21;53.73;98802.47;5323416;26;33893;-80
2024/04/18 00:57:35;;;;;;;0.00;0.00;;;;;;;10.27;53.53;98802.13;5324075;26;33920;-80
2024/04/18 01:00:09;;;;;;;0.00;0.00;;;;;;;10.06;53.76;98803.31;5288222;26;33408;-80
2024/04/18 01:02:51;;;;;;;0.30;0.30;;;;;;;10.11;53.82;98802.16;5274243;26;32382;-80
2024/04/18 01:05:32;;;;;;;0.00;0.00;;;;;;;10.25;53.75;98807.50;5325573;26;34960;-80
2024/04/18 01:07:59;;;;;;;0.98;0.98;;;;;;;10.30;53.49;98809.84;5323606;26;34186;-80
2024/04/18 01:10:45;;;;;;;0.00;0.00;;;;;;;10.31;53.30;98814.22;5326657;26;33391;-80
2024/04/18 01:13:12;;;;;;;0.00;0.00;;;;;;;10.06;53.47;98809.44;5323528;26;33487;-79
2024/04/18 01:16:04;;;;;;;0.00;0.00;;;;;;;9.93;53.84;98819.87;5327355;26;33926;-80
2024/04/18 01:18:31;;;;;;;0.30;0.17;;;;;;;10.10;53.69;98815.41;5287020;26;33804;-79
2024/04/18 01:21:12;;;;;;;0.45;0.45;;;;;;;10.05;53.11;98806.91;5323442;26;32241;-79
2024/04/18 01:23:39;;;;;;;3.05;0.10;;;;;;;10.21;52.58;98810.38;5305173;26;33478;-79
2024/04/18 01:26:06;;;;;;;0.32;0.30;;;;;;;10.17;53.05;98812.34;5323477;26;34025;-79
2024/04/18 01:28:32;;;;;;;0.10;0.10;;;;;;;10.09;52.89;98808.44;5304950;26;33740;-79
2024/04/18 01:30:59;;;;;;;0.80;0.80;;;;;;;9.71;54.05;98814.94;5304889;26;32575;-80
2024/04/18 01:33:27;;;;;;;0.00;0.00;;;;;;;9.78;53.74;98818.09;5286994;26;32376;-80
2024/04/18 01:35:53;;;;;;;0.00;0.00;;;;;;;9.94;53.53;98811.00;5343509;26;34037;-80
2024/04/18 01:38:20;;;;;;;0.55;0.55;;;;;;;9.84;54.04;98812.47;5343519;26;33686;-80
2024/04/18 01:40:46;;;;;;;0.52;0.52;;;;;;;9.95;53.54;98817.97;5323505;26;33816;-80
2024/04/18 01:43:28;;;;;;;0.00;0.00;;;;;;;9.90;53.56;98820.03;5306584;26;34128;-80
2024/04/18 01:45:57;;;;;;;0.13;0.13;;;;;;;9.85;53.82;98819.44;5306103;26;34542;-79
2024/04/18 01:48:23;;;;;;;0.98;0.37;;;;;;;9.60;54.51;98819.13;5305342;26;33750;-79
2024/04/18 01:51:05;;;;;;;0.30;0.30;;;;;;;9.35;55.03;98833.63;5306293;26;32862;-79
2024/04/18 01:53:32;;;;;;;0.25;0.25;;;;;;;9.33;55.57;98832.00;5305103;26;32849;-79
2024/04/18 01:55:58;;;;;;;0.28;0.28;;;;;;;9.14;55.87;98834.78;5323563;26;35019;-79
2024/04/18 01:58:39;;;;;;;0.00;0.00;;;;;;;9.26;55.35;98839.41;5325302;26;34858;-79
2024/04/18 02:01:06;;;;;;;0.00;0.00;;;;;;;9.35;54.91;98832.75;5305193;26;33649;-79
2024/04/18 02:03:33;;;;;;;0.00;0.00;;;;;;;9.47;54.88;98837.38;5304950;26;33655;-79
2024/04/18 02:06:11;;;;;;;0.85;0.85;;;;;;;9.09;55.85;98842.06;5309049;26;34823;-79
2024/04/18 02:08:46;;;;;;;0.15;0.15;;;;;;;9.19;55.49;98843.28;5324619;26;33631;-79
2024/04/18 02:11:17;;;;;;;0.22;0.22;;;;;;;9.26;55.50;98839.41;5322801;26;32844;-80
2024/04/18 02:13:58;;;;;;;0.00;0.00;;;;;;;9.23;55.60;98839.56;5342292;26;33660;-81
2024/04/18 02:16:25;;;;;;;0.08;0.08;;;;;;;8.90;56.32;98843.03;5286968;26;34597;-82
2024/04/18 02:19:07;;;;;;;0.90;0.83;;;;;;;9.31;55.45;98847.06;5324784;26;34570;-82
2024/04/18 02:21:48;;;;;;;0.00;0.00;;;;;;;9.33;55.10;98847.81;5290541;26;32377;-82
2024/04/18 02:24:31;;;;;;;0.37;0.37;;;;;;;9.22;55.41;98838.72;5309696;26;34028;-80
2024/04/18 02:26:59;;;;;;;0.05;0.05;;;;;;;9.25;55.83;98842.94;5287427;26;34865;-79
2024/04/18 02:29:26;;;;;;;0.00;0.00;;;;;;;9.29;55.54;98849.75;5286420;26;32839;-80
2024/04/18 02:31:59;;;;;;;0.65;0.55;;;;;;;9.27;55.50;98851.63;5307234;26;33678;-80
2024/04/18 02:34:29;;;;;;;0.50;0.50;;;;;;;9.17;55.80;98850.44;5287954;26;33281;-81
2024/04/18 02:36:56;;;;;;;0.77;0.77;;;;;;;9.39;55.32;98853.59;5305067;26;33013;-80
2024/04/18 02:39:25;;;;;;;2.17;0.90;;;;;;;9.49;55.01;98851.31;5323658;26;32323;-81
2024/04/18 02:41:51;;;;;;;0.52;0.52;;;;;;;9.45;55.36;98855.91;5323270;26;33055;-81
2024/04/18 02:44:25;;;;;;;0.03;0.00;;;;;;;9.84;54.04;98857.28;5288853;26;34700;-80
2024/04/18 02:46:52;;;;;;;0.25;0.25;;;;;;;9.36;55.32;98855.56;5305164;26;33943;-82
2024/04/18 02:49:18;;;;;;;0.28;0.28;;;;;;;9.09;56.13;98858.72;5323766;26;34815;-81
2024/04/18 02:51:56;;;;;;;0.82;0.60;;;;;;;9.29;55.67;98860.28;5271794;26;32299;-81
2024/04/18 02:54:37;;;;;;;0.00;0.00;;;;;;;9.44;55.39;98859.47;5309468;26;33966;-81
2024/04/18 02:57:04;;;;;;;0.30;0.30;;;;;;;9.12;56.30;98865.63;5304607;26;33426;-81
2024/04/18 02:59:31;;;;;;;0.28;0.28;;;;;;;9.15;56.41;98868.06;5323283;26;34020;-82
2024/04/18 03:02:17;;;;;;;0.25;0.08;;;;;;;9.20;56.11;98866.88;5311387;26;33506;-82
2024/04/18 03:04:45;;;;;;;0.65;0.52;;;;;;;9.16;56.39;98867.13;5286862;26;34262;-81
2024/04/18 03:07:11;;;;;;;0.30;0.30;;;;;;;9.34;55.81;98868.78;5304936;26;34021;-81
2024/04/18 03:09:46;;;;;;;0.70;0.50;;;;;;;9.54;55.23;98866.88;5306140;26;32487;-82
2024/04/18 03:12:27;;;;;;;0.05;0.05;;;;;;;9.30;56.00;98861.97;5306674;26;32162;-81
2024/04/18 03:15:09;;;;;;;1.08;0.50;;;;;;;9.34;55.69;98868.78;5323083;26;34917;-82
2024/04/18 03:17:40;;;;;;;0.00;0.00;;;;;;;9.36;55.79;98863.47;5269926;26;33010;-81
2024/04/18 03:20:21;;;;;;;0.32;0.32;;;;;;;9.37;55.79;98867.78;5309431;26;34697;-82
2024/04/18 03:23:09;;;;;;;0.10;0.10;;;;;;;9.28;56.27;98874.41;5310916;26;33631;-82
2024/04/18 03:25:50;;;;;;;0.43;0.43;;;;;;;9.29;56.27;98870.81;5325736;26;33221;-81
2024/04/18 03:28:17;;;;;;;0.28;0.28;;;;;;;9.36;55.78;98876.62;5287615;26;33508;-81
2024/04/18 03:30:43;;;;;;;0.08;0.08;;;;;;;9.15;56.78;98870.72;5305553;26;32901;-81
2024/04/18 03:33:10;;;;;;;0.30;0.30;;;;;;;9.10;56.78;98880.63;5324186;26;33454;-81
2024/04/18 03:35:38;;;;;;;0.10;0.10;;;;;;;9.18;56.77;98874.03;5305823;26;33925;-81
2024/04/18 03:38:13;;;;;;;0.00;0.00;;;;;;;9.25;56.71;98885.09;5306892;26;34385;-82
2024/04/18 03:40:39;;;;;;;0.70;0.65;;;;;;;9.57;55.41;98875.47;5287175;26;33204;-82
2024/04/18 03:43:06;;;;;;;0.77;0.77;;;;;;;9.45;55.82;98877.00;5305767;26;34393;-82
2024/04/18 03:45:33;;;;;;;0.00;0.00;;;;;;;9.47;55.71;98880.37;5305471;26;32964;-81
2024/04/18 03:48:15;;;;;;;0.57;0.57;;;;;;;9.49;55.43;98875.91;5326107;26;33728;-81
2024/04/18 03:50:43;;;;;;;0.32;0.25;;;;;;;9.48;55.75;98882.09;5304707;26;32956;-80
2024/04/18 03:53:19;;;;;;;0.00;0.00;;;;;;;9.42;55.55;98881.56;5325124;26;33439;-80
2024/04/18 03:55:46;;;;;;;0.30;0.30;;;;;;;9.47;55.40;98882.19;5323705;26;33720;-80
2024/04/18 03:58:12;;;;;;;0.50;0.45;;;;;;;9.37;55.42;98884.44;5305779;26;34031;-80
2024/04/18 04:00:47;;;;;;;0.10;0.10;;;;;;;9.35;55.76;98890.72;5288340;26;34396;-80
2024/04/18 04:03:14;;;;;;;0.62;0.62;;;;;;;9.38;56.01;98893.19;5324128;26;33772;-80
2024/04/18 04:05:41;;;;;;;0.80;0.80;;;;;;;9.36;55.84;98897.72;5305343;26;33025;-80
2024/04/18 04:08:09;;;;;;;0.00;0.00;;;;;;;9.31;56.22;98905.88;5305522;26;32818;-81
2024/04/18 04:10:39;;;;;;;0.73;0.73;;;;;;;9.31;56.24;98910.28;5288316;26;33394;-81
2024/04/18 04:13:06;;;;;;;0.03;0.03;;;;;;;9.18;56.73;98915.34;5305520;26;31841;-80
2024/04/18 04:15:50;;;;;;;0.65;0.65;;;;;;;9.32;56.31;98920.72;5289677;26;34143;-80
2024/04/18 04:18:31;;;;;;;0.13;0.10;;;;;;;9.61;55.72;98924.44;5309536;26;33932;-80
2024/04/18 04:21:13;;;;;;;0.05;0.05;;;;;;;9.22;56.90;98928.25;5310505;26;34275;-81
2024/04/18 04:23:40;;;;;;;0.50;0.50;;;;;;;9.13;56.96;98933.16;5287372;26;34629;-80
2024/04/18 04:26:06;;;;;;;0.40;0.40;;;;;;;9.29;56.72;98933.19;5287271;26;33080;-80
2024/04/18 04:28:33;;;;;;;0.10;0.10;;;;;;;9.30;57.15;98930.47;5305018;26;34777;-80
2024/04/18 04:31:00;;;;;;;1.45;1.27;;;;;;;9.29;57.02;98928.78;5304606;26;34110;-80
2024/04/18 04:33:27;;;;;;;15.75;2.62;;;;;;;9.39;56.67;98930.00;5303805;26;32910;-81
2024/04/18 04:35:54;;;;;;;0.05;0.05;;;;;;;9.45;56.51;98934.13;5305280;26;33982;-82
2024/04/18 04:38:21;;;;;;;0.30;0.30;;;;;;;9.48;56.24;98929.50;5304588;26;33953;-81
2024/04/18 04:40:48;;;;;;;0.47;0.47;;;;;;;9.33;56.47;98940.87;5323237;26;34015;-81
2024/04/18 04:43:14;;;;;;;1.40;1.30;;;;;;;9.55;56.22;98935.31;5304796;26;33579;-81
2024/04/18 04:45:41;;;;;;;0.52;0.52;;;;;;;9.36;57.20;98940.72;5304725;26;33999;-81
2024/04/18 04:48:08;;;;;;;0.90;0.85;;;;;;;9.45;56.26;98936.75;5323208;26;33939;-81
2024/04/18 04:51:01;;;;;;;1.35;1.25;;;;;;;9.33;56.62;98935.59;5276304;26;32976;-83
2024/04/18 04:53:32;;;;;;;0.20;0.20;;;;;;;9.38;56.55;98940.63;5324334;26;34884;-82
2024/04/18 04:55:59;;;;;;;0.70;0.60;;;;;;;9.40;56.57;98942.25;5286491;26;33833;-82
2024/04/18 04:58:26;;;;;;;0.00;0.00;;;;;;;9.38;57.06;98953.81;5304623;26;34649;-82
2024/04/18 05:00:56;;;;;;;1.00;0.85;;;;;;;9.37;56.80;98947.69;5323878;26;33490;-81
2024/04/18 05:03:36;;;;;;;0.00;0.00;;;;;;;9.79;55.77;98950.75;5307699;26;34463;-81
2024/04/18 05:06:17;;;;;;;1.52;1.42;;;;;;;9.61;56.33;98960.50;5306509;26;32698;-81
2024/04/18 05:08:45;;;;;;;0.30;0.30;;;;;;;9.65;56.08;98954.97;5286161;26;33644;-82
2024/04/18 05:11:11;;;;;;;0.52;0.52;;;;;;;9.61;56.20;98961.34;5303997;26;34455;-81
2024/04/18 05:13:39;;;;;;;0.37;0.37;;;;;;;9.71;55.83;98959.06;5323027;26;34228;-81
2024/04/18 05:16:17;;;;;;;0.80;0.70;;;;;;;9.34;57.35;98968.06;5288487;26;32962;-81
2024/04/18 05:18:59;;;;;;;0.40;0.40;;;;;;;9.49;56.55;98965.50;5342520;26;34008;-81
2024/04/18 05:21:26;;;;;;;0.00;0.00;;;;;;;9.60;56.27;98971.97;5287065;26;33107;-81
2024/04/18 05:24:07;;;;;;;0.70;0.65;;;;;;;9.49;56.30;98978.69;5324999;26;33359;-81
2024/04/18 05:26:34;;;;;;;1.27;0.90;;;;;;;9.42;57.29;98981.69;5286676;26;34184;-82
2024/04/18 05:31:47;;;;;;;1.37;0.62;;;;;;;8.85;57.92;98984.56;5307625;26;34546;-81
2024/04/18 05:34:14;;;;;;;0.45;0.32;;;;;;;9.18;57.28;98978.53;5322548;26;34152;-82
2024/04/18 05:36:41;;;;;;;1.58;1.48;;;;;;;8.98;57.49;98982.19;5305207;26;34346;-82
2024/04/18 05:39:09;;;;;;;0.10;0.10;;;;;;;9.08;57.75;98977.31;5304970;26;34630;-81
2024/04/18 05:41:37;;;;;;;1.65;1.00;;;;;;;9.09;57.18;98984.28;5323069;26;33958;-82
2024/04/18 05:44:24;;;;;;;0.45;0.45;;;;;;;8.98;57.56;98980.41;5311747;26;34234;-81
2024/04/18 05:46:51;;;;;;;1.75;1.52;;;;;;;9.02;57.62;98988.13;5286296;26;33743;-82
2024/04/18 05:49:21;;;;;;;1.95;0.62;;;;;;;9.13;57.31;98985.81;5286318;26;33496;-81
2024/04/18 05:51:47;;;;;;;0.98;0.98;;;;;;;9.04;57.54;98992.41;5304740;26;33898;-81
2024/04/18 05:54:31;;;;;;;1.85;1.25;;;;;;;9.10;57.17;98991.25;5309717;26;33107;-81
2024/04/18 05:57:06;;;;;;;0.00;0.00;;;;;;;9.34;56.61;98995.25;5323992;26;34027;-81
2024/04/18 05:59:50;;;;;;;1.02;0.88;;;;;;;9.29;56.86;98999.06;5326212;26;34671;-80
2024/04/18 06:02:20;;;;;;;0.62;0.62;;;;;;;9.04;57.69;99002.09;5288075;26;33212;-80
2024/04/18 06:04:47;;;;;;;0.80;0.55;;;;;;;8.86;58.45;98995.94;5323453;26;31936;-81
2024/04/18 06:07:30;;;;;;;0.03;0.03;;;;;;;9.07;58.19;98997.53;5325067;26;33660;-81
2024/04/18 06:09:57;;;;;;;0.00;0.00;;;;;;;9.43;57.03;99002.69;5323073;26;33436;-81
2024/04/18 06:12:23;;;;;;;1.17;1.02;;;;;;;9.32;57.41;99007.66;5304804;26;32563;-81
2024/04/18 06:14:50;;;;;;;0.35;0.35;;;;;;;9.36;57.51;99006.59;5323696;26;33676;-81
2024/04/18 06:17:17;;;;;;;0.28;0.28;;;;;;;9.27;57.38;99009.69;5287173;26;34108;-81
2024/04/18 06:19:52;;;;;;;0.75;0.75;;;;;;;9.39;57.25;99009.03;5306040;26;32599;-81
2024/04/18 06:22:28;;;;;;;0.62;0.62;;;;;;;9.33;57.70;99004.09;5306055;26;33479;-81
2024/04/18 06:25:10;;;;;;;0.25;0.25;;;;;;;9.14;57.93;99013.88;5290357;26;32023;-81
2024/04/18 06:27:37;;;;;;;0.90;0.90;;;;;;;9.14;57.37;99014.72;5305249;26;32256;-81
2024/04/18 06:30:04;;;;;;;0.52;0.52;;;;;;;8.87;58.55;99016.94;5323405;26;34705;-81
2024/04/18 06:32:30;;;;;;;0.40;0.40;;;;;;;9.37;56.80;99016.19;5304810;26;34417;-81
2024/04/18 06:34:57;;;;;;;0.77;0.77;;;;;;;9.14;57.88;99024.41;5305187;26;32105;-81
2024/04/18 06:37:25;;;;;;;1.17;1.17;;;;;;;9.17;57.90;99017.19;5305203;26;33867;-81
2024/04/18 06:39:52;;;;;;;0.28;0.28;;;;;;;9.51;57.34;99014.62;5323532;26;33524;-81
2024/04/18 06:42:19;;;;;;;0.10;0.10;;;;;;;9.50;57.57;99016.41;5323673;26;33907;-81
2024/04/18 06:44:45;;;;;;;0.40;0.35;;;;;;;9.75;56.53;99015.97;5296943;27;33554;-81
2024/04/18 06:47:12;;;;;;;0.35;0.35;;;;;;;9.59;56.85;99017.69;5279259;27;32593;-81
2024/04/18 06:49:58;;;;;;;0.45;0.45;;;;;;;9.71;56.54;99012.66;5297580;27;33885;-87
2024/04/18 06:52:25;;;;;;;1.17;1.08;;;;;;;9.64;57.05;99013.06;5297639;27;34835;-84
2024/04/18 06:54:52;;;;;;;1.10;1.10;;;;;;;9.62;57.51;99013.13;5296861;27;33809;-83
2024/04/18 06:57:33;;;;;;;0.30;0.30;;;;;;;9.58;58.60;99021.28;5264713;27;33764;-84
2024/04/18 07:00:01;;;;;;;0.20;0.20;;;;;;;9.53;59.23;99025.94;5261538;27;32421;-83
2024/04/18 07:02:28;;;;;;;0.70;0.70;;;;;;;9.94;58.67;99026.41;5279842;27;33147;-81
2024/04/18 07:05:10;;;;;;;0.10;0.10;;;;;;;9.94;59.32;99021.97;5280259;27;33592;-81
2024/04/18 07:07:46;;;;;;;0.45;0.45;;;;;;;10.04;59.81;99027.59;5280636;27;32233;-80
2024/04/18 07:10:27;;;;;;;0.47;0.47;;;;;;;10.00;59.81;99032.19;5297074;27;33743;-81
2024/04/18 07:12:54;;;;;;;0.20;0.20;;;;;;;9.96;61.04;99029.78;5279432;27;32397;-80
2024/04/18 07:15:22;;;;;;;0.73;0.70;;;;;;;9.98;59.78;99036.69;5315601;27;33577;-81
2024/04/18 07:18:03;;;;;;;1.25;1.17;;;;;;;10.24;59.37;99031.84;5296804;27;34739;-81
2024/04/18 07:20:30;;;;;;;0.88;0.82;;;;;;;10.27;59.52;99036.09;5260545;27;35280;-80
2024/04/18 07:23:04;;;;;;;0.90;0.62;;;;;;;10.29;59.39;99032.44;5314443;27;33959;-80
2024/04/18 07:25:31;;;;;;;0.43;0.40;;;;;;;10.21;59.19;99039.91;5279030;27;32834;-80
2024/04/18 07:27:58;;;;;;;0.75;0.75;;;;;;;10.49;58.95;99040.13;5278717;27;33241;-80
2024/04/18 07:30:24;;;;;;;0.55;0.55;;;;;;;10.36;58.32;99044.38;5297372;27;34150;-81
2024/04/18 07:32:51;;;;;;;0.35;0.35;;;;;;;10.86;56.99;99045.94;5278775;27;34754;-81
2024/04/18 07:35:33;;;;;;;0.65;0.65;;;;;;;11.00;55.55;99045.16;5281002;27;32149;-80
2024/04/18 07:38:00;;;;;;;0.77;0.77;;;;;;;11.08;56.78;99042.09;5297321;27;33963;-80
2024/04/18 07:40:26;;;;;;;1.60;1.52;;;;;;;11.09;56.56;99041.16;5278796;27;32983;-80
2024/04/18 07:42:53;;;;;;;1.95;0.88;;;;;;;11.03;56.07;99039.72;5302028;27;34625;-80
2024/04/18 07:45:21;;;;;;;0.65;0.50;;;;;;;10.81;56.83;99053.28;5301294;27;33204;-80
2024/04/18 07:47:47;;;;;;;1.33;1.23;;;;;;;11.45;55.75;99036.38;5320422;27;34699;-80
2024/04/18 07:50:14;;;;;;;0.60;0.60;;;;;;;11.73;55.70;99045.28;5319006;27;32868;-80
2024/04/18 07:52:40;;;;;;;0.17;0.17;;;;;;;12.13;54.82;99045.53;5318908;27;34200;-80
2024/04/18 07:55:07;;;;;;;0.70;0.70;;;;;;;12.40;54.76;99035.84;5300739;27;32225;-80
2024/04/18 07:57:33;;;;;;;1.52;1.42;;;;;;;12.36;53.83;99038.78;5300893;27;33766;-80
2024/04/18 08:00:03;;;;;;;0.10;0.10;;;;;;;12.75;51.68;99036.22;5300695;27;34128;-80
2024/04/18 08:02:37;;;;;;;0.45;0.45;;;;;;;12.68;50.86;99042.03;5302544;27;33193;-81
2024/04/18 08:05:04;;;;;;;0.25;0.25;;;;;;;12.74;51.86;99041.63;5299883;27;34740;-80
2024/04/18 08:07:31;;;;;;;0.30;0.20;;;;;;;12.91;49.21;99041.37;5300562;27;32708;-80
2024/04/18 08:09:58;;;;;;;0.68;0.60;;;;;;;13.04;48.22;99042.28;5319733;27;33860;-80
2024/04/18 08:12:24;;;;;;;0.30;0.30;;;;;;;13.47;48.13;99050.06;5320236;27;34584;-81
2024/04/18 08:14:51;;;;;;;0.10;0.10;;;;;;;13.48;46.88;99041.16;5320118;27;34108;-84
2024/04/18 08:17:17;;;;;;;1.37;1.23;;;;;;;13.80;46.82;99035.44;5301542;27;34561;-84
2024/04/18 08:19:44;;;;;;;0.93;0.82;;;;;;;13.80;46.73;99038.94;5301674;27;34494;-83
2024/04/18 08:22:11;;;;;;;0.50;0.47;;;;;;;13.73;46.60;99042.13;5301946;27;32436;-81
2024/04/18 08:24:38;;;;;;;0.52;0.45;;;;;;;14.07;46.08;99049.44;5283501;27;32410;-81
2024/04/18 08:27:06;;;;;;;0.75;0.47;;;;;;;13.80;47.17;99046.06;5301985;27;34028;-80
2024/04/18 08:29:32;;;;;;;0.45;0.43;;;;;;;13.99;46.00;99054.44;5301547;27;33344;-81
2024/04/18 08:31:59;;;;;;;0.32;0.32;;;;;;;14.45;46.25;99039.72;5321461;27;33486;-81
2024/04/18 08:34:25;;;;;;;0.22;0.22;;;;;;;14.84;45.02;99046.66;5301257;27;32966;-81
2024/04/18 08:36:52;;;;;;;0.98;0.90;;;;;;;14.98;42.60;99041.16;5321236;27;34891;-81
2024/04/18 08:39:19;;;;;;;0.98;0.52;;;;;;;14.62;43.32;99051.81;5301338;27;33281;-79
2024/04/18 08:41:45;;;;;;;0.20;0.20;;;;;;;14.56;43.07;99051.31;5319726;27;34626;-80
2024/04/18 08:44:12;;;;;;;6.35;0.88;;;;;;;15.02;42.38;99042.66;5319494;27;33712;-79
2024/04/18 08:46:39;;;;;;;1.67;0.90;;;;;;;15.32;41.19;99049.28;5319746;27;33911;-81
2024/04/18 08:49:07;;;;;;;0.40;0.40;;;;;;;14.70;42.53;99055.63;5301443;27;33714;-80
2024/04/18 08:51:35;;;;;;;0.37;0.17;;;;;;;14.96;40.45;99048.41;5301723;27;33329;-80
2024/04/18 08:54:02;;;;;;;0.80;0.55;;;;;;;14.97;39.70;99050.13;5319185;27;32846;-80
2024/04/18 08:56:32;;;;;;;0.13;0.13;;;;;;;15.41;39.81;99053.91;5301671;27;32576;-80
2024/04/18 08:58:59;;;;;;;0.00;0.00;;;;;;;15.61;39.86;99055.06;5301729;27;32725;-80
2024/04/18 09:01:25;;;;;;;0.17;0.17;;;;;;;15.63;39.24;99058.47;5320031;27;33658;-80
2024/04/18 09:03:57;;;;;;;0.05;0.05;;;;;;;15.74;38.21;99050.53;5320014;27;34336;-80
2024/04/18 09:06:24;;;;;;;0.85;0.80;;;;;;;15.03;40.65;99059.44;5301712;27;34085;-80
2024/04/18 09:08:52;;;;;;;0.17;0.17;;;;;;;15.34;39.90;99052.69;5319930;27;34142;-80
2024/04/18 09:11:19;;;;;;;0.98;0.85;;;;;;;15.42;39.57;99060.94;5319346;27;33600;-80
2024/04/18 09:13:46;;;;;;;0.10;0.10;;;;;;;15.19;40.86;99067.12;5319948;27;34072;-80
2024/04/18 09:16:13;;;;;;;2.67;0.70;;;;;;;15.30;39.31;99072.50;5319829;27;33971;-80
2024/04/18 09:18:40;;;;;;;0.20;0.20;;;;;;;15.45;39.48;99057.22;5320004;27;34006;-80
2024/04/18 09:21:09;;;;;;;0.28;0.28;;;;;;;16.26;37.80;99056.28;5301368;27;33607;-80
2024/04/18 09:23:37;;;;;;;0.20;0.08;;;;;;;16.23;37.72;99051.19;5301664;27;32075;-80
2024/04/18 09:26:06;;;;;;;0.73;0.60;;;;;;;16.40;37.11;99048.03;5283103;27;32953;-80
2024/04/18 09:28:33;;;;;;;0.62;0.55;;;;;;;15.56;37.82;99052.75;5319219;27;34001;-80
2024/04/18 09:31:00;;;;;;;1.30;1.20;;;;;;;16.36;37.50;99051.91;5320018;27;34581;-80
2024/04/18 09:33:27;;;;;;;2.00;0.60;;;;;;;16.25;37.73;99059.91;5319707;27;32087;-81
2024/04/18 09:35:59;;;;;;;0.65;0.47;;;;;;;16.25;36.14;99060.78;5301339;27;33160;-80
2024/04/18 09:38:33;;;;;;;1.02;0.85;;;;;;;15.84;37.11;99056.00;5321299;27;34090;-80
2024/04/18 09:41:12;;;;;;;0.30;0.28;;;;;;;16.04;37.58;99049.97;5301542;27;32891;-80
2024/04/18 09:44:01;;;;;;;1.65;0.30;;;;;;;16.59;37.54;99052.75;5319378;27;32735;-80
2024/04/18 09:46:31;;;;;;;0.93;0.80;;;;;;;16.16;36.67;99050.00;5319702;27;33830;-80
2024/04/18 09:48:59;;;;;;;0.22;0.22;;;;;;;16.35;36.40;99044.91;5319766;27;34370;-80
2024/04/18 09:51:27;;;;;;;0.30;0.30;;;;;;;16.70;35.37;99043.88;5300733;27;33595;-80
2024/04/18 09:53:54;;;;;;;0.10;0.10;;;;;;;16.54;34.44;99052.28;5319248;27;33023;-81
2024/04/18 09:56:23;;;;;;;3.50;1.12;;;;;;;16.41;35.01;99041.75;5283182;27;33706;-80
2024/04/18 09:58:50;;;;;;;0.22;0.20;;;;;;;15.98;34.98;99050.44;5283607;27;32475;-80
2024/04/18 10:01:18;;;;;;;2.17;0.68;;;;;;;16.93;33.87;99050.88;5301100;27;33737;-80
2024/04/18 10:03:45;;;;;;;0.30;0.30;;;;;;;17.00;33.34;99046.75;5301104;27;33164;-80
2024/04/18 10:06:13;;;;;;;0.28;0.28;;;;;;;17.32;33.24;99051.22;5282897;27;32930;-80
2024/04/18 10:08:42;;;;;;;0.37;0.37;;;;;;;17.30;32.99;99040.69;5301094;27;34627;-80
2024/04/18 10:11:10;;;;;;;0.40;0.40;;;;;;;17.45;35.31;99051.91;5301186;27;32844;-81
2024/04/18 10:13:37;;;;;;;1.17;0.70;;;;;;;16.98;32.79;99046.03;5319889;27;33210;-80
2024/04/18 10:16:13;;;;;;;0.40;0.40;;;;;;;16.91;34.27;99052.84;5319758;27;34663;-80
2024/04/18 10:18:41;;;;;;;0.80;0.28;;;;;;;17.30;33.32;99053.19;5301186;27;33755;-80
2024/04/18 10:21:17;;;;;;;0.30;0.20;;;;;;;16.48;32.89;99056.28;5282851;27;32582;-80
2024/04/18 10:23:50;;;;;;;1.75;0.85;;;;;;;17.27;32.83;99053.44;5301439;27;33143;-81
2024/04/18 10:26:18;;;;;;;0.55;0.55;;;;;;;17.19;33.22;99058.59;5319859;27;32807;-80
2024/04/18 10:28:46;;;;;;;0.20;0.20;;;;;;;17.75;32.54;99051.16;5300919;27;33235;-80
2024/04/18 10:31:15;;;;;;;0.15;0.15;;;;;;;17.93;31.84;99046.06;5282959;27;33481;-81
2024/04/18 10:33:42;;;;;;;0.10;0.10;;;;;;;17.53;31.12;99048.59;5301034;27;32021;-81
2024/04/18 10:36:18;;;;;;;0.22;0.20;;;;;;;17.59;31.06;99046.25;5319682;27;33789;-81
2024/04/18 10:38:47;;;;;;;0.35;0.17;;;;;;;17.27;32.29;99053.44;5283001;27;32383;-81
2024/04/18 10:41:15;;;;;;;0.45;0.25;;;;;;;18.03;30.52;99046.97;5283581;27;33024;-80
2024/04/18 10:43:42;;;;;;;0.00;0.00;;;;;;;17.87;31.17;99051.94;5279229;27;31621;-81
2024/04/18 10:46:09;;;;;;;0.00;0.00;;;;;;;17.61;30.88;99051.44;5279298;27;34508;-81
2024/04/18 10:48:36;;;;;;;0.05;0.00;;;;;;;17.55;32.22;99047.47;5297568;27;34737;-81
2024/04/18 10:51:04;;;;;;;0.20;0.20;;;;;;;18.08;30.28;99049.25;5297488;27;32842;-80
2024/04/18 10:53:37;;;;;;;0.57;0.57;;;;;;;17.99;29.98;99050.88;5297638;27;33383;-80
2024/04/18 10:56:05;;;;;;;0.15;0.15;;;;;;;18.36;29.05;99042.34;5261470;27;33278;-80
2024/04/18 10:58:31;;;;;;;0.80;0.25;;;;;;;18.13;29.47;99055.87;5279653;27;33414;-80
2024/04/18 11:00:59;;;;;;;0.73;0.55;;;;;;;18.45;29.55;99041.53;5278616;27;32775;-81
2024/04/18 11:03:27;;;;;;;0.10;0.10;;;;;;;18.58;28.99;99044.81;5261346;27;34029;-80
2024/04/18 11:05:54;;;;;;;0.62;0.28;;;;;;;18.63;30.73;99052.44;5279434;27;33869;-80
2024/04/18 11:08:21;;;;;;;0.30;0.30;;;;;;;18.75;28.46;99042.50;5279158;27;34568;-80
2024/04/18 11:10:48;;;;;;;1.20;0.45;;;;;;;18.42;28.51;99047.16;5278692;27;32723;-80
2024/04/18 11:13:15;;;;;;;0.30;0.30;;;;;;;18.17;28.14;99051.13;5297268;27;32925;-80
2024/04/18 11:15:42;;;;;;;0.00;0.00;;;;;;;17.43;29.35;99047.69;5279278;27;32809;-84
2024/04/18 11:18:09;;;;;;;0.65;0.08;;;;;;;17.51;28.84;99040.72;5260105;27;34375;-83
2024/04/18 11:20:36;;;;;;;0.03;0.03;;;;;;;18.11;30.77;99039.16;5261173;27;33841;-83
2024/04/18 11:23:03;;;;;;;0.00;0.00;;;;;;;17.99;30.29;99037.53;5278566;27;33792;-83
2024/04/18 11:25:31;;;;;;;0.45;0.35;;;;;;;17.78;29.12;99045.56;5261244;27;34605;-83
2024/04/18 11:28:07;;;;;;;0.88;0.65;;;;;;;18.11;29.50;99047.16;5262316;27;32796;-83
2024/04/18 11:30:41;;;;;;;0.10;0.10;;;;;;;18.12;28.18;99046.19;5261173;27;34589;-83
2024/04/18 11:33:08;;;;;;;2.90;0.60;;;;;;;17.50;29.46;99044.34;5279143;27;32089;-83
2024/04/18 11:35:35;;;;;;;1.27;1.17;;;;;;;17.98;28.74;99049.19;5260853;27;34987;-83
2024/04/18 11:38:11;;;;;;;0.17;0.17;;;;;;;17.64;29.01;99043.19;5280393;27;34831;-83
2024/04/18 11:40:39;;;;;;;0.20;0.20;;;;;;;18.37;29.72;99044.03;5260794;27;34601;-83
2024/04/18 11:43:05;;;;;;;0.80;0.57;;;;;;;18.60;27.44;99045.50;5282323;27;32071;-83
2024/04/18 11:45:32;;;;;;;1.37;1.10;;;;;;;18.48;29.41;99043.94;5279761;27;33111;-83
2024/04/18 11:47:58;;;;;;;0.40;0.40;;;;;;;18.34;30.74;99065.69;5262043;27;34651;-83
2024/04/18 11:50:25;;;;;;;0.20;0.20;;;;;;;18.24;29.44;99054.13;5279965;27;33721;-82
2024/04/18 11:52:53;;;;;;;0.37;0.37;;;;;;;18.03;29.59;99059.47;5262127;27;32205;-83
2024/04/18 11:55:28;;;;;;;0.10;0.10;;;;;;;18.20;29.17;99058.03;5280549;27;33718;-83